sensor_id;sensor_type;location;lat;lon;timestamp;pressure;altitude;pressure_sealevel;temperature;humidity
19208;BME280;9737;59.466;18.036;2023-11-22T00:01:23;91609.09;;;-7.63;85.55
19208;BME280;9737;59.466;18.036;2023-11-22T00:03:52;91635.00;;;-7.58;85.75
19208;BME280;9737;59.466;18.036;2023-11-22T00:06:21;91631.41;;;-7.57;85.32
19208;BME280;9737;59.466;18.036;2023-11-22T00:08:48;91628.84;;;-7.57;85.58
19208;BME280;9737;59.466;18.036;2023-11-22T00:11:16;91606.53;;;-7.63;85.58
19208;BME280;9737;59.466;18.036;2023-11-22T00:13:45;91623.56;;;-7.62;85.24
19208;BME280;9737;59.466;18.036;2023-11-22T00:16:15;91601.81;;;-7.66;85.16
19208;BME280;9737;59.466;18.036;2023-11-22T00:18:43;91601.25;;;-7.68;85.50
19208;BME280;9737;59.466;18.036;2023-11-22T00:21:11;91613.69;;;-7.65;85.42
19208;BME280;9737;59.466;18.036;2023-11-22T00:23:39;91588.00;;;-7.72;85.43
19208;BME280;9737;59.466;18.036;2023-11-22T00:26:06;91562.91;;;-7.76;85.58
19208;BME280;9737;59.466;18.036;2023-11-22T00:28:34;91540.56;;;-7.83;85.43
19208;BME280;9737;59.466;18.036;2023-11-22T00:31:04;91500.13;;;-7.94;85.23
19208;BME280;9737;59.466;18.036;2023-11-22T00:33:32;91486.09;;;-7.98;85.64
19208;BME280;9737;59.466;18.036;2023-11-22T00:36:01;91473.88;;;-8.02;85.60
19208;BME280;9737;59.466;18.036;2023-11-22T00:38:31;91454.97;;;-8.08;85.24
19208;BME280;9737;59.466;18.036;2023-11-22T00:41:02;91432.41;;;-8.13;85.27
19208;BME280;9737;59.466;18.036;2023-11-22T00:43:30;91412.91;;;-8.20;85.07
19208;BME280;9737;59.466;18.036;2023-11-22T00:45:57;91392.44;;;-8.27;85.30
19208;BME280;9737;59.466;18.036;2023-11-22T00:48:27;91391.41;;;-8.26;86.01
19208;BME280;9737;59.466;18.036;2023-11-22T00:50:55;91382.34;;;-8.28;86.08
19208;BME280;9737;59.466;18.036;2023-11-22T00:53:26;91371.50;;;-8.30;85.47
19208;BME280;9737;59.466;18.036;2023-11-22T00:55:54;91368.34;;;-8.32;85.42
19208;BME280;9737;59.466;18.036;2023-11-22T00:58:27;91360.63;;;-8.32;85.48
19208;BME280;9737;59.466;18.036;2023-11-22T01:00:55;91355.97;;;-8.35;85.96
19208;BME280;9737;59.466;18.036;2023-11-22T01:03:22;91334.22;;;-8.39;85.67
19208;BME280;9737;59.466;18.036;2023-11-22T01:05:52;91346.91;;;-8.38;85.13
19208;BME280;9737;59.466;18.036;2023-11-22T01:08:20;91348.03;;;-8.34;85.95
19208;BME280;9737;59.466;18.036;2023-11-22T01:10:48;91376.41;;;-8.29;85.86
19208;BME280;9737;59.466;18.036;2023-11-22T01:13:16;91385.50;;;-8.26;85.54
19208;BME280;9737;59.466;18.036;2023-11-22T01:15:44;91380.78;;;-8.29;85.58
19208;BME280;9737;59.466;18.036;2023-11-22T01:18:13;91359.84;;;-8.33;85.49
19208;BME280;9737;59.466;18.036;2023-11-22T01:20:41;91347.69;;;-8.37;85.85
19208;BME280;9737;59.466;18.036;2023-11-22T01:23:10;91349.81;;;-8.34;85.27
19208;BME280;9737;59.466;18.036;2023-11-22T01:25:38;91360.88;;;-8.34;85.78
19208;BME280;9737;59.466;18.036;2023-11-22T01:28:06;91375.63;;;-8.29;85.29
19208;BME280;9737;59.466;18.036;2023-11-22T01:30:34;91352.38;;;-8.34;85.68
19208;BME280;9737;59.466;18.036;2023-11-22T01:33:02;91342.72;;;-8.39;85.25
19208;BME280;9737;59.466;18.036;2023-11-22T01:35:31;91353.38;;;-8.35;85.58
19208;BME280;9737;59.466;18.036;2023-11-22T01:38:01;91343.31;;;-8.37;85.28
19208;BME280;9737;59.466;18.036;2023-11-22T01:40:32;91346.91;;;-8.38;85.66
19208;BME280;9737;59.466;18.036;2023-11-22T01:43:00;91312.38;;;-8.49;85.54
19208;BME280;9737;59.466;18.036;2023-11-22T01:45:29;91317.09;;;-8.46;85.55
19208;BME280;9737;59.466;18.036;2023-11-22T01:47:56;91306.25;;;-8.48;85.86
19208;BME280;9737;59.466;18.036;2023-11-22T01:50:24;91288.09;;;-8.53;85.80
19208;BME280;9737;59.466;18.036;2023-11-22T01:52:53;91270.75;;;-8.57;86.04
19208;BME280;9737;59.466;18.036;2023-11-22T01:55:21;91256.00;;;-8.62;85.53
19208;BME280;9737;59.466;18.036;2023-11-22T01:57:50;91252.06;;;-8.64;85.47
19208;BME280;9737;59.466;18.036;2023-11-22T02:00:19;91250.50;;;-8.65;85.32
19208;BME280;9737;59.466;18.036;2023-11-22T02:02:48;91225.44;;;-8.70;85.59
19208;BME280;9737;59.466;18.036;2023-11-22T02:05:16;91229.78;;;-8.70;85.12
19208;BME280;9737;59.466;18.036;2023-11-22T02:07:44;91240.44;;;-8.67;85.63
19208;BME280;9737;59.466;18.036;2023-11-22T02:10:13;91222.28;;;-8.72;85.01
19208;BME280;9737;59.466;18.036;2023-11-22T02:12:41;91214.81;;;-8.73;85.59
19208;BME280;9737;59.466;18.036;2023-11-22T02:15:10;91190.06;;;-8.86;85.45
19208;BME280;9737;59.466;18.036;2023-11-22T02:17:38;91180.47;;;-8.79;85.53
19208;BME280;9737;59.466;18.036;2023-11-22T02:20:07;91177.78;;;-8.84;85.48
19208;BME280;9737;59.466;18.036;2023-11-22T02:22:43;91180.13;;;-8.83;85.51
19208;BME280;9737;59.466;18.036;2023-11-22T02:25:12;91164.94;;;-8.84;85.35
19208;BME280;9737;59.466;18.036;2023-11-22T02:27:41;91168.50;;;-8.85;85.69
19208;BME280;9737;59.466;18.036;2023-11-22T02:30:10;91167.72;;;-8.86;85.33
19208;BME280;9737;59.466;18.036;2023-11-22T02:32:38;91187.63;;;-8.81;85.52
19208;BME280;9737;59.466;18.036;2023-11-22T02:35:07;91191.75;;;-8.80;85.54
19208;BME280;9737;59.466;18.036;2023-11-22T02:37:36;91206.75;;;-8.77;85.12
19208;BME280;9737;59.466;18.036;2023-11-22T02:40:05;91164.38;;;-8.86;85.34
19208;BME280;9737;59.466;18.036;2023-11-22T02:42:38;91137.97;;;-8.93;85.28
19208;BME280;9737;59.466;18.036;2023-11-22T02:45:07;91132.28;;;-8.95;85.59
19208;BME280;9737;59.466;18.036;2023-11-22T02:47:35;91117.28;;;-8.98;85.76
19208;BME280;9737;59.466;18.036;2023-11-22T02:50:03;91103.28;;;-9.02;85.65
19208;BME280;9737;59.466;18.036;2023-11-22T02:52:32;91109.22;;;-9.02;85.34
19208;BME280;9737;59.466;18.036;2023-11-22T02:54:59;91109.78;;;-9.00;85.30
19208;BME280;9737;59.466;18.036;2023-11-22T02:57:27;91111.56;;;-9.00;85.52
19208;BME280;9737;59.466;18.036;2023-11-22T02:59:56;91109.22;;;-9.02;85.20
19208;BME280;9737;59.466;18.036;2023-11-22T03:02:24;91100.16;;;-9.04;85.55
19208;BME280;9737;59.466;18.036;2023-11-22T03:04:52;91102.28;;;-9.01;85.21
19208;BME280;9737;59.466;18.036;2023-11-22T03:07:20;91099.94;;;-9.03;85.12
19208;BME280;9737;59.466;18.036;2023-11-22T03:09:48;91095.81;;;-9.04;85.71
19208;BME280;9737;59.466;18.036;2023-11-22T03:12:16;91108.44;;;-9.02;85.39
19208;BME280;9737;59.466;18.036;2023-11-22T03:14:44;91104.88;;;-9.01;85.24
19208;BME280;9737;59.466;18.036;2023-11-22T03:17:14;91132.84;;;-8.93;85.07
19208;BME280;9737;59.466;18.036;2023-11-22T03:19:42;91135.19;;;-8.92;85.28
19208;BME280;9737;59.466;18.036;2023-11-22T03:22:11;91136.63;;;-8.96;85.58
19208;BME280;9737;59.466;18.036;2023-11-22T03:24:39;91125.75;;;-8.98;85.48
19208;BME280;9737;59.466;18.036;2023-11-22T03:27:07;91095.03;;;-9.04;85.79
19208;BME280;9737;59.466;18.036;2023-11-22T03:29:37;91106.88;;;-9.03;85.23
19208;BME280;9737;59.466;18.036;2023-11-22T03:32:06;91089.31;;;-9.07;85.60
19208;BME280;9737;59.466;18.036;2023-11-22T03:34:35;91087.97;;;-9.09;85.46
19208;BME280;9737;59.466;18.036;2023-11-22T03:37:03;91077.72;;;-9.09;85.71
19208;BME280;9737;59.466;18.036;2023-11-22T03:39:31;91082.06;;;-9.10;85.54
19208;BME280;9737;59.466;18.036;2023-11-22T03:41:59;91059.72;;;-9.21;85.07
19208;BME280;9737;59.466;18.036;2023-11-22T03:44:27;91075.34;;;-9.11;85.50
19208;BME280;9737;59.466;18.036;2023-11-22T03:46:54;91076.94;;;-9.10;85.19
19208;BME280;9737;59.466;18.036;2023-11-22T03:49:22;91073.78;;;-9.12;85.12
19208;BME280;9737;59.466;18.036;2023-11-22T03:51:51;91058.81;;;-9.15;85.85
19208;BME280;9737;59.466;18.036;2023-11-22T03:54:19;91060.84;;;-9.17;85.20
19208;BME280;9737;59.466;18.036;2023-11-22T03:56:47;91045.84;;;-9.20;85.73
19208;BME280;9737;59.466;18.036;2023-11-22T03:59:15;91047.88;;;-9.22;85.42
19208;BME280;9737;59.466;18.036;2023-11-22T04:01:43;91039.94;;;-9.20;85.20
19208;BME280;9737;59.466;18.036;2023-11-22T04:04:10;91043.84;;;-9.18;85.20
19208;BME280;9737;59.466;18.036;2023-11-22T04:06:38;91054.91;;;-9.17;85.54
19208;BME280;9737;59.466;18.036;2023-11-22T04:09:08;91048.44;;;-9.20;85.56
19208;BME280;9737;59.466;18.036;2023-11-22T04:11:38;91046.41;;;-9.18;85.51
19208;BME280;9737;59.466;18.036;2023-11-22T04:14:07;91054.13;;;-9.18;85.61
19208;BME280;9737;59.466;18.036;2023-11-22T04:16:36;91045.84;;;-9.20;85.66
19208;BME280;9737;59.466;18.036;2023-11-22T04:19:04;91043.84;;;-9.18;85.59
19208;BME280;9737;59.466;18.036;2023-11-22T04:21:32;91055.69;;;-9.17;85.32
19208;BME280;9737;59.466;18.036;2023-11-22T04:24:00;91055.69;;;-9.17;85.50
19208;BME280;9737;59.466;18.036;2023-11-22T04:26:29;91049.00;;;-9.18;85.23
19208;BME280;9737;59.466;18.036;2023-11-22T04:28:57;91047.44;;;-9.19;85.25
19208;BME280;9737;59.466;18.036;2023-11-22T04:31:25;91040.72;;;-9.20;85.66
19208;BME280;9737;59.466;18.036;2023-11-22T04:33:52;91041.72;;;-9.21;85.32
19208;BME280;9737;59.466;18.036;2023-11-22T04:36:21;91061.63;;;-9.16;85.79
19208;BME280;9737;59.466;18.036;2023-11-22T04:38:51;91069.44;;;-9.11;85.41
19208;BME280;9737;59.466;18.036;2023-11-22T04:41:19;91086.75;;;-9.07;85.61
19208;BME280;9737;59.466;18.036;2023-11-22T04:43:48;91099.72;;;-9.01;85.76
19208;BME280;9737;59.466;18.036;2023-11-22T04:46:16;91117.84;;;-8.96;85.54
19208;BME280;9737;59.466;18.036;2023-11-22T04:48:43;91140.31;;;-8.92;85.57
19208;BME280;9737;59.466;18.036;2023-11-22T04:51:12;91162.78;;;-8.87;85.43
19208;BME280;9737;59.466;18.036;2023-11-22T04:53:39;91159.22;;;-8.86;85.68
19208;BME280;9737;59.466;18.036;2023-11-22T04:56:09;91170.84;;;-8.84;85.54
19208;BME280;9737;59.466;18.036;2023-11-22T04:58:37;91177.34;;;-8.81;85.08
19208;BME280;9737;59.466;18.036;2023-11-22T05:01:06;91188.75;;;-8.77;85.50
19208;BME280;9737;59.466;18.036;2023-11-22T05:03:37;91208.88;;;-8.74;85.68
19208;BME280;9737;59.466;18.036;2023-11-22T05:06:05;91217.38;;;-8.73;85.78
19208;BME280;9737;59.466;18.036;2023-11-22T05:08:33;91236.09;;;-8.66;85.42
19208;BME280;9737;59.466;18.036;2023-11-22T05:11:03;91258.56;;;-8.62;85.85
19208;BME280;9737;59.466;18.036;2023-11-22T05:13:31;91284.97;;;-8.55;85.87
19208;BME280;9737;59.466;18.036;2023-11-22T05:15:59;91288.66;;;-8.51;85.87
19208;BME280;9737;59.466;18.036;2023-11-22T05:18:28;91304.44;;;-8.47;85.51
19208;BME280;9737;59.466;18.036;2023-11-22T05:20:56;91331.09;;;-8.41;86.10
19208;BME280;9737;59.466;18.036;2023-11-22T05:23:24;91351.38;;;-8.33;85.56
19208;BME280;9737;59.466;18.036;2023-11-22T05:25:52;91381.13;;;-8.26;85.51
19208;BME280;9737;59.466;18.036;2023-11-22T05:28:20;91423.34;;;-8.15;85.51
19208;BME280;9737;59.466;18.036;2023-11-22T05:30:47;91426.47;;;-8.13;85.53
19208;BME280;9737;59.466;18.036;2023-11-22T05:33:15;91431.84;;;-8.15;85.54
19208;BME280;9737;59.466;18.036;2023-11-22T05:35:45;91412.25;;;-8.16;85.68
19208;BME280;9737;59.466;18.036;2023-11-22T05:38:13;91406.78;;;-8.19;85.56
19208;BME280;9737;59.466;18.036;2023-11-22T05:40:41;91399.50;;;-8.22;85.71
19208;BME280;9737;59.466;18.036;2023-11-22T05:43:09;91398.47;;;-8.21;85.89
19208;BME280;9737;59.466;18.036;2023-11-22T05:45:38;91412.47;;;-8.17;85.46
19208;BME280;9737;59.466;18.036;2023-11-22T05:48:06;91439.13;;;-8.12;85.71
19208;BME280;9737;59.466;18.036;2023-11-22T05:50:34;91502.69;;;-7.94;85.35
19208;BME280;9737;59.466;18.036;2023-11-22T05:53:03;91550.47;;;-7.79;85.34
19208;BME280;9737;59.466;18.036;2023-11-22T05:55:31;91585.78;;;-7.68;85.40
19208;BME280;9737;59.466;18.036;2023-11-22T05:57:59;91624.69;;;-7.58;85.75
19208;BME280;9737;59.466;18.036;2023-11-22T06:00:27;91646.03;;;-7.51;85.49
19208;BME280;9737;59.466;18.036;2023-11-22T06:02:55;91698.41;;;-7.39;85.56
19208;BME280;9737;59.466;18.036;2023-11-22T06:05:23;91791.94;;;-7.13;85.14
19208;BME280;9737;59.466;18.036;2023-11-22T06:07:51;91836.63;;;-7.01;85.51
19208;BME280;9737;59.466;18.036;2023-11-22T06:10:20;91964.06;;;-6.66;85.77
19208;BME280;9737;59.466;18.036;2023-11-22T06:12:49;92104.69;;;-6.25;85.61
19208;BME280;9737;59.466;18.036;2023-11-22T06:15:17;92304.53;;;-5.70;85.78
19208;BME280;9737;59.466;18.036;2023-11-22T06:17:47;92418.91;;;-5.43;85.86
19208;BME280;9737;59.466;18.036;2023-11-22T06:20:16;92492.34;;;-5.19;85.35
19208;BME280;9737;59.466;18.036;2023-11-22T06:22:44;92578.97;;;-4.96;85.84
19208;BME280;9737;59.466;18.036;2023-11-22T06:25:11;92650.56;;;-4.77;85.71
19208;BME280;9737;59.466;18.036;2023-11-22T06:27:41;92681.97;;;-4.67;85.63
19208;BME280;9737;59.466;18.036;2023-11-22T06:30:09;92722.97;;;-4.57;85.67
19208;BME280;9737;59.466;18.036;2023-11-22T06:32:37;92743.84;;;-4.52;85.69
19208;BME280;9737;59.466;18.036;2023-11-22T06:35:06;92748.03;;;-4.51;85.71
19208;BME280;9737;59.466;18.036;2023-11-22T06:37:36;92774.69;;;-4.44;85.72
19208;BME280;9737;59.466;18.036;2023-11-22T06:40:05;92806.13;;;-4.34;85.79
19208;BME280;9737;59.466;18.036;2023-11-22T06:42:33;92834.03;;;-4.29;85.82
19208;BME280;9737;59.466;18.036;2023-11-22T06:45:03;92849.75;;;-4.24;85.80
19208;BME280;9737;59.466;18.036;2023-11-22T06:47:34;92852.13;;;-4.23;85.90
19208;BME280;9737;59.466;18.036;2023-11-22T06:50:02;92864.69;;;-4.20;85.67
19208;BME280;9737;59.466;18.036;2023-11-22T06:52:30;92867.06;;;-4.18;85.84
19208;BME280;9737;59.466;18.036;2023-11-22T06:54:59;92855.53;;;-4.22;85.93
19208;BME280;9737;59.466;18.036;2023-11-22T06:57:27;92846.38;;;-4.25;85.67
19208;BME280;9737;59.466;18.036;2023-11-22T06:59:55;92835.84;;;-4.30;86.03
19208;BME280;9737;59.466;18.036;2023-11-22T07:02:24;92837.41;;;-4.29;85.81
19208;BME280;9737;59.466;18.036;2023-11-22T07:04:52;92832.44;;;-4.30;85.78
19208;BME280;9737;59.466;18.036;2023-11-22T07:07:20;92839.00;;;-4.28;85.81
19208;BME280;9737;59.466;18.036;2023-11-22T07:09:48;92828.06;;;-4.30;85.74
19208;BME280;9737;59.466;18.036;2023-11-22T07:12:16;92818.28;;;-4.34;85.86
19208;BME280;9737;59.466;18.036;2023-11-22T07:14:45;92829.06;;;-4.31;85.96
19208;BME280;9737;59.466;18.036;2023-11-22T07:17:16;92842.97;;;-4.25;85.83
19208;BME280;9737;59.466;18.036;2023-11-22T07:19:46;92868.28;;;-4.21;85.89
19208;BME280;9737;59.466;18.036;2023-11-22T07:22:15;92902.53;;;-4.12;86.08
19208;BME280;9737;59.466;18.036;2023-11-22T07:24:46;92918.03;;;-4.06;86.08
19208;BME280;9737;59.466;18.036;2023-11-22T07:27:17;92948.94;;;-3.97;85.99
19208;BME280;9737;59.466;18.036;2023-11-22T07:29:46;92965.69;;;-3.93;85.81
19208;BME280;9737;59.466;18.036;2023-11-22T07:32:14;92993.97;;;-3.85;85.94
19208;BME280;9737;59.466;18.036;2023-11-22T07:34:42;93011.72;;;-3.82;86.09
19208;BME280;9737;59.466;18.036;2023-11-22T07:37:11;93034.03;;;-3.75;85.89
19208;BME280;9737;59.466;18.036;2023-11-22T07:39:39;93060.75;;;-3.67;85.79
19208;BME280;9737;59.466;18.036;2023-11-22T07:42:09;93077.50;;;-3.63;86.08
19208;BME280;9737;59.466;18.036;2023-11-22T07:44:37;93084.28;;;-3.62;85.85
19208;BME280;9737;59.466;18.036;2023-11-22T07:47:06;93110.19;;;-3.56;85.91
19208;BME280;9737;59.466;18.036;2023-11-22T07:49:38;93152.50;;;-3.42;85.87
19208;BME280;9737;59.466;18.036;2023-11-22T07:52:06;93165.84;;;-3.38;86.04
19208;BME280;9737;59.466;18.036;2023-11-22T07:54:35;93179.44;;;-3.36;85.92
19208;BME280;9737;59.466;18.036;2023-11-22T07:57:04;93198.56;;;-3.31;86.07
19208;BME280;9737;59.466;18.036;2023-11-22T07:59:31;93201.75;;;-3.29;85.85
19208;BME280;9737;59.466;18.036;2023-11-22T08:01:59;93212.72;;;-3.27;86.08
19208;BME280;9737;59.466;18.036;2023-11-22T08:04:28;93223.72;;;-3.25;86.04
19208;BME280;9737;59.466;18.036;2023-11-22T08:06:58;93231.88;;;-3.21;86.06
19208;BME280;9737;59.466;18.036;2023-11-22T08:09:28;93246.09;;;-3.17;85.82
19208;BME280;9737;59.466;18.036;2023-11-22T08:12:00;93254.47;;;-3.15;85.93
19208;BME280;9737;59.466;18.036;2023-11-22T08:14:32;93269.03;;;-3.14;86.00
19208;BME280;9737;59.466;18.036;2023-11-22T08:17:00;93290.59;;;-3.07;85.94
19208;BME280;9737;59.466;18.036;2023-11-22T08:19:30;93290.59;;;-3.07;85.82
19208;BME280;9737;59.466;18.036;2023-11-22T08:21:58;93315.75;;;-3.01;85.80
19208;BME280;9737;59.466;18.036;2023-11-22T08:24:26;93312.34;;;-3.01;86.02
19208;BME280;9737;59.466;18.036;2023-11-22T08:26:54;93349.28;;;-2.93;86.06
19208;BME280;9737;59.466;18.036;2023-11-22T08:29:23;93364.09;;;-2.87;85.90
19208;BME280;9737;59.466;18.036;2023-11-22T08:31:51;93397.66;;;-2.78;85.96
19208;BME280;9737;59.466;18.036;2023-11-22T08:34:19;93410.22;;;-2.75;86.04
19208;BME280;9737;59.466;18.036;2023-11-22T08:36:47;93410.84;;;-2.73;86.25
19208;BME280;9737;59.466;18.036;2023-11-22T08:39:14;93443.41;;;-2.64;85.95
19208;BME280;9737;59.466;18.036;2023-11-22T08:41:42;93476.41;;;-2.58;86.22
19208;BME280;9737;59.466;18.036;2023-11-22T08:44:10;93495.78;;;-2.54;86.02
19208;BME280;9737;59.466;18.036;2023-11-22T08:46:39;93517.78;;;-2.50;85.88
19208;BME280;9737;59.466;18.036;2023-11-22T08:49:07;93513.97;;;-2.47;85.95
19208;BME280;9737;59.466;18.036;2023-11-22T08:51:36;93532.56;;;-2.44;86.07
19208;BME280;9737;59.466;18.036;2023-11-22T08:54:03;93548.94;;;-2.37;85.81
19208;BME280;9737;59.466;18.036;2023-11-22T08:56:31;93560.16;;;-2.36;85.92
19208;BME280;9737;59.466;18.036;2023-11-22T08:59:01;93576.78;;;-2.31;86.02
19208;BME280;9737;59.466;18.036;2023-11-22T09:01:31;93592.97;;;-2.29;86.19
19208;BME280;9737;59.466;18.036;2023-11-22T09:04:01;93603.56;;;-2.24;86.05
19208;BME280;9737;59.466;18.036;2023-11-22T09:06:29;93628.78;;;-2.17;86.00
19208;BME280;9737;59.466;18.036;2023-11-22T09:08:56;93655.59;;;-2.10;86.12
19208;BME280;9737;59.466;18.036;2023-11-22T09:11:24;93670.59;;;-2.06;86.04
19208;BME280;9737;59.466;18.036;2023-11-22T09:13:52;93697.63;;;-2.00;86.28
19208;BME280;9737;59.466;18.036;2023-11-22T09:16:23;93721.25;;;-1.95;85.96
19208;BME280;9737;59.466;18.036;2023-11-22T09:18:51;93736.06;;;-1.89;86.26
19208;BME280;9737;59.466;18.036;2023-11-22T09:21:22;93739.25;;;-1.87;85.78
19208;BME280;9737;59.466;18.036;2023-11-22T09:23:52;93756.06;;;-1.83;86.34
19208;BME280;9737;59.466;18.036;2023-11-22T09:26:19;93760.88;;;-1.87;85.94
19208;BME280;9737;59.466;18.036;2023-11-22T09:28:47;93799.13;;;-1.74;86.43
19208;BME280;9737;59.466;18.036;2023-11-22T09:31:15;93789.72;;;-1.75;86.25
19208;BME280;9737;59.466;18.036;2023-11-22T09:33:46;93812.56;;;-1.70;86.31
19208;BME280;9737;59.466;18.036;2023-11-22T09:36:15;93798.94;;;-1.72;86.11
19208;BME280;9737;59.466;18.036;2023-11-22T09:38:46;93820.78;;;-1.67;86.34
19208;BME280;9737;59.466;18.036;2023-11-22T09:41:14;93836.00;;;-1.64;86.27
19208;BME280;9737;59.466;18.036;2023-11-22T09:43:43;93841.00;;;-1.62;86.44
19208;BME280;9737;59.466;18.036;2023-11-22T09:46:13;93845.81;;;-1.59;86.27
19208;BME280;9737;59.466;18.036;2023-11-22T09:48:44;93873.84;;;-1.54;86.30
19208;BME280;9737;59.466;18.036;2023-11-22T09:51:20;93855.03;;;-1.57;86.04
19208;BME280;9737;59.466;18.036;2023-11-22T09:53:55;93863.84;;;-1.58;86.20
19208;BME280;9737;59.466;18.036;2023-11-22T09:56:25;93894.09;;;-1.50;86.27
19208;BME280;9737;59.466;18.036;2023-11-22T09:58:54;93908.31;;;-1.46;86.08
19208;BME280;9737;59.466;18.036;2023-11-22T10:01:23;93914.97;;;-1.43;86.44
19208;BME280;9737;59.466;18.036;2023-11-22T10:03:51;93909.13;;;-1.45;85.94
19208;BME280;9737;59.466;18.036;2023-11-22T10:06:19;93907.31;;;-1.45;86.29
19208;BME280;9737;59.466;18.036;2023-11-22T10:08:47;93917.56;;;-1.43;86.06
19208;BME280;9737;59.466;18.036;2023-11-22T10:11:17;93917.56;;;-1.43;86.39
19208;BME280;9737;59.466;18.036;2023-11-22T10:13:47;93923.56;;;-1.43;86.44
19208;BME280;9737;59.466;18.036;2023-11-22T10:16:16;93920.78;;;-1.41;85.95
19208;BME280;9737;59.466;18.036;2023-11-22T10:18:46;93937.59;;;-1.37;86.51
19208;BME280;9737;59.466;18.036;2023-11-22T10:21:21;93934.41;;;-1.39;86.42
19208;BME280;9737;59.466;18.036;2023-11-22T10:23:53;93942.63;;;-1.36;86.08
19208;BME280;9737;59.466;18.036;2023-11-22T10:26:25;93942.41;;;-1.34;86.22
19208;BME280;9737;59.466;18.036;2023-11-22T10:28:56;93966.47;;;-1.32;86.27
19208;BME280;9737;59.466;18.036;2023-11-22T10:31:24;93956.03;;;-1.32;86.13
19208;BME280;9737;59.466;18.036;2023-11-22T10:33:53;93963.66;;;-1.31;86.30
19208;BME280;9737;59.466;18.036;2023-11-22T10:36:22;93955.44;;;-1.34;86.33
19208;BME280;9737;59.466;18.036;2023-11-22T10:38:50;93956.03;;;-1.32;86.07
19208;BME280;9737;59.466;18.036;2023-11-22T10:41:20;93955.44;;;-1.34;86.15
19208;BME280;9737;59.466;18.036;2023-11-22T10:43:51;93969.66;;;-1.30;86.44
19208;BME280;9737;59.466;18.036;2023-11-22T10:46:19;93988.13;;;-1.25;86.15
19208;BME280;9737;59.466;18.036;2023-11-22T10:48:48;93980.69;;;-1.28;86.19
19208;BME280;9737;59.466;18.036;2023-11-22T10:51:17;93998.13;;;-1.22;86.05
19208;BME280;9737;59.466;18.036;2023-11-22T10:53:48;93995.53;;;-1.22;86.10
19208;BME280;9737;59.466;18.036;2023-11-22T10:56:19;94022.44;;;-1.15;86.38
19208;BME280;9737;59.466;18.036;2023-11-22T10:58:51;94034.25;;;-1.12;86.40
19208;BME280;9737;59.466;18.036;2023-11-22T11:01:19;94046.69;;;-1.08;86.34
19208;BME280;9737;59.466;18.036;2023-11-22T11:03:55;94038.28;;;-1.10;85.96
19208;BME280;9737;59.466;18.036;2023-11-22T11:06:26;94055.50;;;-1.09;86.16
19208;BME280;9737;59.466;18.036;2023-11-22T11:09:01;94058.72;;;-1.07;86.45
19208;BME280;9737;59.466;18.036;2023-11-22T11:11:33;94054.50;;;-1.08;86.27
19208;BME280;9737;59.466;18.036;2023-11-22T11:14:04;94067.94;;;-1.04;86.24
19208;BME280;9737;59.466;18.036;2023-11-22T11:16:35;94069.56;;;-1.03;86.84
19208;BME280;9737;59.466;18.036;2023-11-22T11:19:05;94086.59;;;-1.01;86.41
19208;BME280;9737;59.466;18.036;2023-11-22T11:21:34;94094.84;;;-0.97;86.49
19208;BME280;9737;59.466;18.036;2023-11-22T11:24:02;94103.06;;;-0.94;86.15
19208;BME280;9737;59.466;18.036;2023-11-22T11:26:32;94105.66;;;-0.94;86.03
19208;BME280;9737;59.466;18.036;2023-11-22T11:29:02;94121.91;;;-0.91;86.48
19208;BME280;9737;59.466;18.036;2023-11-22T11:31:31;94124.13;;;-0.88;86.40
19208;BME280;9737;59.466;18.036;2023-11-22T11:34:05;94126.72;;;-0.88;86.31
19208;BME280;9737;59.466;18.036;2023-11-22T11:36:37;94165.50;;;-0.79;86.30
19208;BME280;9737;59.466;18.036;2023-11-22T11:39:06;94171.91;;;-0.75;86.55
19208;BME280;9737;59.466;18.036;2023-11-22T11:41:37;94179.53;;;-0.73;86.58
19208;BME280;9737;59.466;18.036;2023-11-22T11:44:08;94184.38;;;-0.70;86.28
19208;BME280;9737;59.466;18.036;2023-11-22T11:46:38;94205.84;;;-0.68;86.33
19208;BME280;9737;59.466;18.036;2023-11-22T11:49:07;94218.47;;;-0.65;86.65
19208;BME280;9737;59.466;18.036;2023-11-22T11:51:35;94228.50;;;-0.62;86.04
19208;BME280;9737;59.466;18.036;2023-11-22T11:54:05;94231.72;;;-0.60;86.42
19208;BME280;9737;59.466;18.036;2023-11-22T11:56:33;94238.38;;;-0.57;86.27
19208;BME280;9737;59.466;18.036;2023-11-22T11:59:02;94246.03;;;-0.56;86.42
19208;BME280;9737;59.466;18.036;2023-11-22T12:01:31;94283.34;;;-0.49;86.26
19208;BME280;9737;59.466;18.036;2023-11-22T12:04:00;94272.31;;;-0.51;86.17
19208;BME280;9737;59.466;18.036;2023-11-22T12:06:29;94286.56;;;-0.47;85.90
19208;BME280;9737;59.466;18.036;2023-11-22T12:09:00;94302.44;;;-0.42;85.93
19208;BME280;9737;59.466;18.036;2023-11-22T12:11:30;94314.91;;;-0.37;86.51
19208;BME280;9737;59.466;18.036;2023-11-22T12:13:58;94337.00;;;-0.33;86.51
19208;BME280;9737;59.466;18.036;2023-11-22T12:16:26;94342.03;;;-0.32;86.16
19208;BME280;9737;59.466;18.036;2023-11-22T12:18:56;94350.28;;;-0.28;86.37
19208;BME280;9737;59.466;18.036;2023-11-22T12:21:25;94370.59;;;-0.23;86.36
19208;BME280;9737;59.466;18.036;2023-11-22T12:23:54;94371.59;;;-0.24;86.29
19208;BME280;9737;59.466;18.036;2023-11-22T12:26:22;94401.72;;;-0.15;86.15
19208;BME280;9737;59.466;18.036;2023-11-22T12:28:50;94407.56;;;-0.13;86.58
19208;BME280;9737;59.466;18.036;2023-11-22T12:31:31;94442.34;;;-0.06;86.49
19208;BME280;9737;59.466;18.036;2023-11-22T12:34:04;94458.84;;;0.01;86.56
19208;BME280;9737;59.466;18.036;2023-11-22T12:36:33;94464.88;;;0.02;86.18
19208;BME280;9737;59.466;18.036;2023-11-22T12:39:06;94495.44;;;0.08;86.53
19208;BME280;9737;59.466;18.036;2023-11-22T12:41:35;94506.31;;;0.11;86.11
19208;BME280;9737;59.466;18.036;2023-11-22T12:44:06;94501.09;;;0.11;86.44
19208;BME280;9737;59.466;18.036;2023-11-22T12:46:47;94538.47;;;0.18;86.55
19208;BME280;9737;59.466;18.036;2023-11-22T12:49:25;94538.09;;;0.21;86.25
19208;BME280;9737;59.466;18.036;2023-11-22T12:51:54;94533.25;;;0.18;86.29
19208;BME280;9737;59.466;18.036;2023-11-22T12:54:23;94551.75;;;0.23;86.34
19208;BME280;9737;59.466;18.036;2023-11-22T12:56:52;94566.03;;;0.27;86.45
19208;BME280;9737;59.466;18.036;2023-11-22T12:59:26;94569.47;;;0.28;86.59
19208;BME280;9737;59.466;18.036;2023-11-22T13:01:58;94572.72;;;0.30;86.18
19208;BME280;9737;59.466;18.036;2023-11-22T13:04:29;94554.00;;;0.26;86.50
19208;BME280;9737;59.466;18.036;2023-11-22T13:06:58;94565.44;;;0.25;86.20
19208;BME280;9737;59.466;18.036;2023-11-22T13:09:27;94541.69;;;0.20;86.53